sensor_id;sensor_type;location;lat;lon;timestamp;temperature;humidity
48575;DHT22;34352;51.084;3.712;2023-05-10T05:42:30;13.50;90.10
48575;DHT22;34352;51.084;3.712;2023-05-10T09:55:17;18.20;1.00
48575;DHT22;34352;51.084;3.712;2023-05-10T09:58:02;18.40;1.00
48575;DHT22;34352;51.084;3.712;2023-05-10T10:00:46;19.10;1.00
48575;DHT22;34352;51.084;3.712;2023-05-10T10:03:32;20.10;1.00
48575;DHT22;34352;51.084;3.712;2023-05-10T10:06:19;21.20;1.00
48575;DHT22;34352;51.084;3.712;2023-05-10T10:08:45;21.80;99.90
48575;DHT22;34352;51.084;3.712;2023-05-10T10:11:13;21.70;99.90
48575;DHT22;34352;51.084;3.712;2023-05-10T10:13:44;21.70;99.90
48575;DHT22;34352;51.084;3.712;2023-05-10T10:16:17;22.40;99.90
48575;DHT22;34352;51.084;3.712;2023-05-10T10:18:45;22.50;99.90
48575;DHT22;34352;51.084;3.712;2023-05-10T10:21:16;22.60;99.90
48575;DHT22;34352;51.084;3.712;2023-05-10T10:23:46;22.90;66.50
48575;DHT22;34352;51.084;3.712;2023-05-10T10:26:53;23.50;53.70
48575;DHT22;34352;51.084;3.712;2023-05-10T10:39:01;21.10;68.40
48575;DHT22;34352;51.084;3.712;2023-05-10T10:41:48;20.10;99.90
48575;DHT22;34352;51.084;3.712;2023-05-10T10:44:34;19.40;99.90
48575;DHT22;34352;51.084;3.712;2023-05-10T10:50:08;18.60;99.90
48575;DHT22;34352;51.084;3.712;2023-05-10T10:55:20;18.10;99.90
48575;DHT22;34352;51.084;3.712;2023-05-10T12:00:54;18.40;1.00
48575;DHT22;34352;51.084;3.712;2023-05-10T12:03:52;18.60;1.00
48575;DHT22;34352;51.084;3.712;2023-05-10T12:09:23;19.10;1.00
48575;DHT22;34352;51.084;3.712;2023-05-10T12:12:06;19.00;1.00
48575;DHT22;34352;51.084;3.712;2023-05-10T12:14:54;18.90;1.00
48575;DHT22;34352;51.084;3.712;2023-05-10T12:17:28;18.70;1.00
48575;DHT22;34352;51.084;3.712;2023-05-10T12:20:23;18.80;1.00
48575;DHT22;34352;51.084;3.712;2023-05-10T12:28:43;18.10;1.00
48575;DHT22;34352;51.084;3.712;2023-05-10T13:50:11;16.20;59.10
48575;DHT22;34352;51.084;3.712;2023-05-10T13:52:37;16.40;58.10
48575;DHT22;34352;51.084;3.712;2023-05-10T14:04:36;16.20;58.60
48575;DHT22;34352;51.084;3.712;2023-05-10T14:07:04;16.10;53.60
48575;DHT22;34352;51.084;3.712;2023-05-10T14:09:33;16.00;54.70
48575;DHT22;34352;51.084;3.712;2023-05-10T14:33:40;16.60;62.40
48575;DHT22;34352;51.084;3.712;2023-05-10T14:36:24;16.70;57.00
48575;DHT22;34352;51.084;3.712;2023-05-10T14:39:13;16.80;58.70
48575;DHT22;34352;51.084;3.712;2023-05-10T14:41:42;16.80;63.30
48575;DHT22;34352;51.084;3.712;2023-05-10T14:44:10;16.90;57.80
48575;DHT22;34352;51.084;3.712;2023-05-10T14:46:38;16.90;53.40
48575;DHT22;34352;51.084;3.712;2023-05-10T14:55:17;17.00;46.80
48575;DHT22;34352;51.084;3.712;2023-05-10T14:57:44;17.10;38.30
48575;DHT22;34352;51.084;3.712;2023-05-10T15:00:13;17.10;41.10
48575;DHT22;34352;51.084;3.712;2023-05-10T15:02:41;17.20;25.20
48575;DHT22;34352;51.084;3.712;2023-05-10T15:05:10;17.30;21.40
48575;DHT22;34352;51.084;3.712;2023-05-10T15:07:41;17.40;18.40
48575;DHT22;34352;51.084;3.712;2023-05-10T15:10:11;17.60;10.60
48575;DHT22;34352;51.084;3.712;2023-05-10T15:12:43;17.50;1.00
48575;DHT22;34352;51.084;3.712;2023-05-10T15:28:50;17.90;1.00
48575;DHT22;34352;51.084;3.712;2023-05-10T15:38:26;16.70;1.00
48575;DHT22;34352;51.084;3.712;2023-05-10T15:40:56;17.50;1.00
48575;DHT22;34352;51.084;3.712;2023-05-10T15:43:25;17.40;1.00
48575;DHT22;34352;51.084;3.712;2023-05-10T15:45:54;17.70;1.00
48575;DHT22;34352;51.084;3.712;2023-05-10T15:48:25;17.80;1.00
48575;DHT22;34352;51.084;3.712;2023-05-10T15:50:56;18.00;1.00
48575;DHT22;34352;51.084;3.712;2023-05-10T15:53:49;18.10;1.00
48575;DHT22;34352;51.084;3.712;2023-05-10T15:56:30;18.20;1.00
48575;DHT22;34352;51.084;3.712;2023-05-10T15:59:07;18.40;1.00
48575;DHT22;34352;51.084;3.712;2023-05-10T16:04:14;18.50;1.00
48575;DHT22;34352;51.084;3.712;2023-05-10T16:06:39;18.50;1.00
48575;DHT22;34352;51.084;3.712;2023-05-10T16:09:05;18.70;1.00
48575;DHT22;34352;51.084;3.712;2023-05-10T16:11:32;18.80;1.00
48575;DHT22;34352;51.084;3.712;2023-05-10T16:13:59;18.90;1.00
48575;DHT22;34352;51.084;3.712;2023-05-10T16:16:30;19.00;1.00
48575;DHT22;34352;51.084;3.712;2023-05-10T16:18:57;19.00;1.00
48575;DHT22;34352;51.084;3.712;2023-05-10T16:21:47;19.10;1.00
48575;DHT22;34352;51.084;3.712;2023-05-10T16:24:14;19.00;1.00
48575;DHT22;34352;51.084;3.712;2023-05-10T16:26:41;18.90;1.00
48575;DHT22;34352;51.084;3.712;2023-05-10T16:29:09;18.70;1.00
48575;DHT22;34352;51.084;3.712;2023-05-10T16:31:35;18.70;1.00
48575;DHT22;34352;51.084;3.712;2023-05-10T16:34:02;18.60;1.00
48575;DHT22;34352;51.084;3.712;2023-05-10T16:36:40;18.70;1.00
48575;DHT22;34352;51.084;3.712;2023-05-10T16:39:06;18.80;1.00
48575;DHT22;34352;51.084;3.712;2023-05-10T16:41:35;18.80;1.00
48575;DHT22;34352;51.084;3.712;2023-05-10T16:44:02;18.90;1.00
48575;DHT22;34352;51.084;3.712;2023-05-10T16:46:42;18.90;1.00
48575;DHT22;34352;51.084;3.712;2023-05-10T16:49:13;18.90;1.00
48575;DHT22;34352;51.084;3.712;2023-05-10T16:59:32;18.60;1.00
48575;DHT22;34352;51.084;3.712;2023-05-10T17:02:28;18.60;1.00
48575;DHT22;34352;51.084;3.712;2023-05-10T17:04:59;18.60;1.00
48575;DHT22;34352;51.084;3.712;2023-05-10T17:07:25;18.50;1.00
48575;DHT22;34352;51.084;3.712;2023-05-10T17:09:59;18.50;1.00
48575;DHT22;34352;51.084;3.712;2023-05-10T17:12:39;18.40;1.00
48575;DHT22;34352;51.084;3.712;2023-05-10T17:18:29;18.40;1.00
48575;DHT22;34352;51.084;3.712;2023-05-10T17:21:07;18.30;1.00
48575;DHT22;34352;51.084;3.712;2023-05-10T17:23:35;18.10;1.00
48575;DHT22;34352;51.084;3.712;2023-05-10T17:26:13;17.90;1.00
48575;DHT22;34352;51.084;3.712;2023-05-10T17:31:39;17.70;1.00
48575;DHT22;34352;51.084;3.712;2023-05-10T17:34:10;17.70;1.00
48575;DHT22;34352;51.084;3.712;2023-05-10T17:36:36;17.70;1.00
48575;DHT22;34352;51.084;3.712;2023-05-10T17:39:08;17.70;1.00
48575;DHT22;34352;51.084;3.712;2023-05-10T17:41:41;17.60;1.00
48575;DHT22;34352;51.084;3.712;2023-05-10T17:47:26;17.60;1.00
48575;DHT22;34352;51.084;3.712;2023-05-10T17:49:54;17.70;1.00
48575;DHT22;34352;51.084;3.712;2023-05-10T17:52:39;17.80;1.00
48575;DHT22;34352;51.084;3.712;2023-05-10T17:55:21;17.90;1.00
48575;DHT22;34352;51.084;3.712;2023-05-10T17:57:48;18.00;1.00
48575;DHT22;34352;51.084;3.712;2023-05-10T18:00:17;18.00;1.00
48575;DHT22;34352;51.084;3.712;2023-05-10T18:02:46;18.10;1.00
48575;DHT22;34352;51.084;3.712;2023-05-10T18:05:13;18.00;1.00
48575;DHT22;34352;51.084;3.712;2023-05-10T18:07:39;18.00;1.00
48575;DHT22;34352;51.084;3.712;2023-05-10T18:10:06;18.10;1.00
48575;DHT22;34352;51.084;3.712;2023-05-10T18:12:34;18.20;1.00
48575;DHT22;34352;51.084;3.712;2023-05-10T18:15:01;17.30;1.00
48575;DHT22;34352;51.084;3.712;2023-05-10T18:17:28;18.10;1.00
48575;DHT22;34352;51.084;3.712;2023-05-10T18:19:54;18.10;1.00
48575;DHT22;34352;51.084;3.712;2023-05-10T18:22:23;18.00;1.00
48575;DHT22;34352;51.084;3.712;2023-05-10T18:24:58;17.90;1.00
48575;DHT22;34352;51.084;3.712;2023-05-10T18:27:25;17.80;1.00
48575;DHT22;34352;51.084;3.712;2023-05-10T18:29:53;17.70;1.00
48575;DHT22;34352;51.084;3.712;2023-05-10T18:32:20;17.60;1.00
48575;DHT22;34352;51.084;3.712;2023-05-10T18:34:59;17.50;1.00
48575;DHT22;34352;51.084;3.712;2023-05-10T18:37:32;17.30;1.00
48575;DHT22;34352;51.084;3.712;2023-05-10T18:39:58;16.40;1.00
48575;DHT22;34352;51.084;3.712;2023-05-10T18:42:41;17.20;1.00
48575;DHT22;34352;51.084;3.712;2023-05-10T18:45:18;17.00;1.00
48575;DHT22;34352;51.084;3.712;2023-05-10T18:47:45;17.00;1.00
48575;DHT22;34352;51.084;3.712;2023-05-10T18:53:34;16.10;1.00
48575;DHT22;34352;51.084;3.712;2023-05-10T18:56:00;16.60;1.00
48575;DHT22;34352;51.084;3.712;2023-05-10T18:58:27;16.30;1.00
48575;DHT22;34352;51.084;3.712;2023-05-10T19:00:54;16.20;1.00
48575;DHT22;34352;51.084;3.712;2023-05-10T19:03:20;16.10;1.00
48575;DHT22;34352;51.084;3.712;2023-05-10T19:05:47;16.00;1.00
48575;DHT22;34352;51.084;3.712;2023-05-10T19:08:16;15.90;1.00
48575;DHT22;34352;51.084;3.712;2023-05-10T19:10:42;15.80;1.00
48575;DHT22;34352;51.084;3.712;2023-05-10T19:13:12;15.80;1.00
48575;DHT22;34352;51.084;3.712;2023-05-10T19:15:44;15.70;1.00
48575;DHT22;34352;51.084;3.712;2023-05-10T19:18:10;15.50;2.00
48575;DHT22;34352;51.084;3.712;2023-05-10T19:20:35;15.40;5.80
48575;DHT22;34352;51.084;3.712;2023-05-10T19:23:02;15.30;13.50
48575;DHT22;34352;51.084;3.712;2023-05-10T19:25:30;15.20;18.10
48575;DHT22;34352;51.084;3.712;2023-05-10T19:27:56;15.20;18.80
48575;DHT22;34352;51.084;3.712;2023-05-10T19:30:23;15.20;21.70
48575;DHT22;34352;51.084;3.712;2023-05-10T19:32:50;15.10;23.30
48575;DHT22;34352;51.084;3.712;2023-05-10T19:35:24;15.10;27.20
48575;DHT22;34352;51.084;3.712;2023-05-10T19:37:50;15.00;30.80
48575;DHT22;34352;51.084;3.712;2023-05-10T19:43:41;15.10;35.80
48575;DHT22;34352;51.084;3.712;2023-05-10T19:46:15;15.10;38.20
48575;DHT22;34352;51.084;3.712;2023-05-10T19:48:43;15.10;38.90
48575;DHT22;34352;51.084;3.712;2023-05-10T19:51:10;15.00;38.20
48575;DHT22;34352;51.084;3.712;2023-05-10T19:53:56;14.90;39.00
48575;DHT22;34352;51.084;3.712;2023-05-10T19:56:22;14.90;44.00
48575;DHT22;34352;51.084;3.712;2023-05-10T19:58:55;14.80;46.80
48575;DHT22;34352;51.084;3.712;2023-05-10T20:01:23;14.80;49.70
48575;DHT22;34352;51.084;3.712;2023-05-10T20:03:49;14.80;49.90
48575;DHT22;34352;51.084;3.712;2023-05-10T20:06:15;14.80;50.90
48575;DHT22;34352;51.084;3.712;2023-05-10T20:08:45;14.80;51.50
48575;DHT22;34352;51.084;3.712;2023-05-10T20:11:22;14.80;51.80
48575;DHT22;34352;51.084;3.712;2023-05-10T20:14:00;14.70;53.90
48575;DHT22;34352;51.084;3.712;2023-05-10T20:16:25;14.80;55.10
48575;DHT22;34352;51.084;3.712;2023-05-10T20:19:04;14.80;54.80
48575;DHT22;34352;51.084;3.712;2023-05-10T20:21:31;14.80;57.30
48575;DHT22;34352;51.084;3.712;2023-05-10T20:23:57;14.80;57.90
48575;DHT22;34352;51.084;3.712;2023-05-10T20:26:28;14.80;59.00
48575;DHT22;34352;51.084;3.712;2023-05-10T20:28:54;14.80;59.60
48575;DHT22;34352;51.084;3.712;2023-05-10T20:31:21;14.80;58.80
48575;DHT22;34352;51.084;3.712;2023-05-10T20:33:47;14.80;58.40
48575;DHT22;34352;51.084;3.712;2023-05-10T20:36:14;14.80;59.00
48575;DHT22;34352;51.084;3.712;2023-05-10T20:38:43;14.80;55.00
48575;DHT22;34352;51.084;3.712;2023-05-10T20:41:09;14.80;53.20
48575;DHT22;34352;51.084;3.712;2023-05-10T20:43:35;14.70;49.70
48575;DHT22;34352;51.084;3.712;2023-05-10T20:48:33;14.60;52.10
48575;DHT22;34352;51.084;3.712;2023-05-10T20:51:10;14.50;52.10
48575;DHT22;34352;51.084;3.712;2023-05-10T20:53:56;14.50;50.50
48575;DHT22;34352;51.084;3.712;2023-05-10T20:56:22;14.00;57.10
48575;DHT22;34352;51.084;3.712;2023-05-10T20:58:56;14.30;59.10
48575;DHT22;34352;51.084;3.712;2023-05-10T21:01:29;14.10;60.90
48575;DHT22;34352;51.084;3.712;2023-05-10T21:03:56;14.10;62.80
48575;DHT22;34352;51.084;3.712;2023-05-10T21:06:22;14.20;62.30
48575;DHT22;34352;51.084;3.712;2023-05-10T21:08:49;14.20;61.60
48575;DHT22;34352;51.084;3.712;2023-05-10T21:11:15;14.20;60.10
48575;DHT22;34352;51.084;3.712;2023-05-10T21:13:41;14.20;59.40
48575;DHT22;34352;51.084;3.712;2023-05-10T21:16:06;14.20;59.80
48575;DHT22;34352;51.084;3.712;2023-05-10T21:18:33;14.20;61.20
48575;DHT22;34352;51.084;3.712;2023-05-10T21:21:00;14.20;62.20
48575;DHT22;34352;51.084;3.712;2023-05-10T21:23:29;15.20;63.90
48575;DHT22;34352;51.084;3.712;2023-05-10T21:26:04;14.20;64.70
48575;DHT22;34352;51.084;3.712;2023-05-10T21:28:37;14.10;64.70
48575;DHT22;34352;51.084;3.712;2023-05-10T21:31:03;14.00;64.60
48575;DHT22;34352;51.084;3.712;2023-05-10T21:33:56;14.00;66.20
48575;DHT22;34352;51.084;3.712;2023-05-10T21:36:29;14.00;64.00
48575;DHT22;34352;51.084;3.712;2023-05-10T21:38:56;14.00;62.90
48575;DHT22;34352;51.084;3.712;2023-05-10T21:41:23;14.00;60.90
48575;DHT22;34352;51.084;3.712;2023-05-10T21:43:54;14.00;63.60
48575;DHT22;34352;51.084;3.712;2023-05-10T21:46:22;14.00;64.30
48575;DHT22;34352;51.084;3.712;2023-05-10T21:48:52;14.00;62.80
48575;DHT22;34352;51.084;3.712;2023-05-10T21:51:18;14.00;63.50
48575;DHT22;34352;51.084;3.712;2023-05-10T21:54:01;14.00;64.30
48575;DHT22;34352;51.084;3.712;2023-05-10T21:56:27;14.00;63.60
48575;DHT22;34352;51.084;3.712;2023-05-10T21:58:55;14.00;63.10
48575;DHT22;34352;51.084;3.712;2023-05-10T22:01:23;13.90;62.20
48575;DHT22;34352;51.084;3.712;2023-05-10T22:03:49;13.80;60.40
48575;DHT22;34352;51.084;3.712;2023-05-10T22:06:17;13.80;57.60
48575;DHT22;34352;51.084;3.712;2023-05-10T22:08:46;13.70;57.00
48575;DHT22;34352;51.084;3.712;2023-05-10T22:11:13;13.70;57.90
48575;DHT22;34352;51.084;3.712;2023-05-10T22:13:39;13.70;60.20
48575;DHT22;34352;51.084;3.712;2023-05-10T22:16:05;13.60;60.20
48575;DHT22;34352;51.084;3.712;2023-05-10T22:18:33;13.50;61.30
48575;DHT22;34352;51.084;3.712;2023-05-10T22:21:04;13.50;61.60
48575;DHT22;34352;51.084;3.712;2023-05-10T22:23:32;13.50;62.00
48575;DHT22;34352;51.084;3.712;2023-05-10T22:26:01;13.40;61.00
48575;DHT22;34352;51.084;3.712;2023-05-10T22:28:28;13.40;62.50
48575;DHT22;34352;51.084;3.712;2023-05-10T22:30:56;13.30;63.60
48575;DHT22;34352;51.084;3.712;2023-05-10T22:33:25;13.40;59.90
48575;DHT22;34352;51.084;3.712;2023-05-10T22:35:53;13.30;60.80
48575;DHT22;34352;51.084;3.712;2023-05-10T22:38:22;13.20;62.40
48575;DHT22;34352;51.084;3.712;2023-05-10T22:40:49;13.20;58.90
48575;DHT22;34352;51.084;3.712;2023-05-10T22:43:15;13.20;56.60
48575;DHT22;34352;51.084;3.712;2023-05-10T22:45:42;13.20;55.50
48575;DHT22;34352;51.084;3.712;2023-05-10T22:48:10;13.10;54.80
48575;DHT22;34352;51.084;3.712;2023-05-10T22:50:38;13.00;55.20
48575;DHT22;34352;51.084;3.712;2023-05-10T22:53:04;13.00;56.30
48575;DHT22;34352;51.084;3.712;2023-05-10T22:55:33;13.00;56.30
48575;DHT22;34352;51.084;3.712;2023-05-10T22:58:01;13.00;56.30
48575;DHT22;34352;51.084;3.712;2023-05-10T23:00:27;12.90;55.90
48575;DHT22;34352;51.084;3.712;2023-05-10T23:02:54;12.80;55.80
48575;DHT22;34352;51.084;3.712;2023-05-10T23:05:22;12.90;56.40
48575;DHT22;34352;51.084;3.712;2023-05-10T23:07:51;12.90;56.70
48575;DHT22;34352;51.084;3.712;2023-05-10T23:10:20;12.80;56.30
48575;DHT22;34352;51.084;3.712;2023-05-10T23:12:45;12.80;57.10
48575;DHT22;34352;51.084;3.712;2023-05-10T23:15:12;12.80;58.80
48575;DHT22;34352;51.084;3.712;2023-05-10T23:17:38;12.80;55.70
48575;DHT22;34352;51.084;3.712;2023-05-10T23:20:05;12.80;56.70
48575;DHT22;34352;51.084;3.712;2023-05-10T23:22:31;12.70;59.10
48575;DHT22;34352;51.084;3.712;2023-05-10T23:24:57;12.70;56.90
48575;DHT22;34352;51.084;3.712;2023-05-10T23:27:27;12.60;58.20
48575;DHT22;34352;51.084;3.712;2023-05-10T23:29:54;12.70;60.70
48575;DHT22;34352;51.084;3.712;2023-05-10T23:32:22;11.30;58.40
48575;DHT22;34352;51.084;3.712;2023-05-10T23:34:49;12.60;60.40
48575;DHT22;34352;51.084;3.712;2023-05-10T23:37:15;12.50;65.00
48575;DHT22;34352;51.084;3.712;2023-05-10T23:39:41;12.50;64.00
48575;DHT22;34352;51.084;3.712;2023-05-10T23:42:07;12.40;66.50
48575;DHT22;34352;51.084;3.712;2023-05-10T23:44:34;12.40;67.90
48575;DHT22;34352;51.084;3.712;2023-05-10T23:47:02;12.30;68.90
48575;DHT22;34352;51.084;3.712;2023-05-10T23:49:29;12.40;69.20
48575;DHT22;34352;51.084;3.712;2023-05-10T23:51:57;12.40;68.90
48575;DHT22;34352;51.084;3.712;2023-05-10T23:54:33;13.30;69.60
48575;DHT22;34352;51.084;3.712;2023-05-10T23:57:03;12.30;71.70
48575;DHT22;34352;51.084;3.712;2023-05-10T23:59:35;12.10;71.70
